sensor_id;sensor_type;location;lat;lon;timestamp;pressure;altitude;pressure_sealevel;temperature;humidity
52343;BME280;38277;51.972;4.624;2023-04-12T00:11:42;100520.0;;;10.1;86.5
52343;BME280;38277;51.972;4.624;2023-04-12T00:20:34;100500.0;;;10.1;87.0
52343;BME280;38277;51.972;4.624;2023-04-12T00:29:48;100470.0;;;10.0;87.0
52343;BME280;38277;51.972;4.624;2023-04-12T00:42:47;100420.0;;;10.0;87.5
52343;BME280;38277;51.972;4.624;2023-04-12T01:00:37;100370.0;;;9.9;87.5
52343;BME280;38277;51.972;4.624;2023-04-12T01:06:50;100350.0;;;9.9;87.5
52343;BME280;38277;51.972;4.624;2023-04-12T01:15:12;100330.0;;;10.0;87.0
52343;BME280;38277;51.972;4.624;2023-04-12T01:18:50;100330.0;;;9.9;87.0
52343;BME280;38277;51.972;4.624;2023-04-12T01:23:37;100320.0;;;9.9;87.0
52343;BME280;38277;51.972;4.624;2023-04-12T01:27:52;100300.0;;;9.9;87.0
52343;BME280;38277;51.972;4.624;2023-04-12T01:32:05;100290.0;;;9.9;87.0
52343;BME280;38277;51.972;4.624;2023-04-12T01:40:18;100280.0;;;9.9;87.0
52343;BME280;38277;51.972;4.624;2023-04-12T01:40:55;100250.0;;;9.8;87.0
52343;BME280;38277;51.972;4.624;2023-04-12T01:54:40;100220.0;;;9.8;87.5
52343;BME280;38277;51.972;4.624;2023-04-12T01:58:56;100210.0;;;9.7;87.5
52343;BME280;38277;51.972;4.624;2023-04-12T02:03:48;100200.0;;;9.8;88.0
52343;BME280;38277;51.972;4.624;2023-04-12T02:09:41;100180.0;;;9.7;88.0
52343;BME280;38277;51.972;4.624;2023-04-12T02:12:25;100180.0;;;9.8;88.0
52343;BME280;38277;51.972;4.624;2023-04-12T02:17:15;100160.0;;;9.7;88.5
52343;BME280;38277;51.972;4.624;2023-04-12T02:27:27;100150.0;;;9.7;88.5
52343;BME280;38277;51.972;4.624;2023-04-12T02:30:38;100140.0;;;9.7;89.0
52343;BME280;38277;51.972;4.624;2023-04-12T02:34:50;100120.0;;;9.7;89.5
52343;BME280;38277;51.972;4.624;2023-04-12T02:53:14;100090.0;;;9.7;90.5
52343;BME280;38277;51.972;4.624;2023-04-12T02:57:26;100080.0;;;9.7;91.0
52343;BME280;38277;51.972;4.624;2023-04-12T03:03:50;100070.0;;;9.7;90.5
52343;BME280;38277;51.972;4.624;2023-04-12T03:11:00;100050.0;;;9.7;91.0
52343;BME280;38277;51.972;4.624;2023-04-12T03:21:34;100030.0;;;9.7;91.5
52343;BME280;38277;51.972;4.624;2023-04-12T03:29:14;100020.0;;;9.7;91.5
52343;BME280;38277;51.972;4.624;2023-04-12T03:39:38;100010.0;;;9.8;91.0
52343;BME280;38277;51.972;4.624;2023-04-12T03:46:49;99990.0;;;9.8;92.0
52343;BME280;38277;51.972;4.624;2023-04-12T04:00:22;99950.0;;;9.8;92.0
52343;BME280;38277;51.972;4.624;2023-04-12T04:03:23;99960.0;;;9.8;92.0
52343;BME280;38277;51.972;4.624;2023-04-12T04:09:36;99960.0;;;9.7;92.5
52343;BME280;38277;51.972;4.624;2023-04-12T04:15:38;99960.0;;;9.8;92.5
52343;BME280;38277;51.972;4.624;2023-04-12T04:23:02;99970.0;;;9.8;92.5
52343;BME280;38277;51.972;4.624;2023-04-12T04:36:40;99960.0;;;9.8;93.0
52343;BME280;38277;51.972;4.624;2023-04-12T04:53:17;99970.0;;;9.8;93.5
52343;BME280;38277;51.972;4.624;2023-04-12T04:56:17;99980.0;;;9.8;93.5
52343;BME280;38277;51.972;4.624;2023-04-12T05:06:38;99970.0;;;9.8;94.5
52343;BME280;38277;51.972;4.624;2023-04-12T05:09:39;99950.0;;;9.9;94.0
52343;BME280;38277;51.972;4.624;2023-04-12T05:16:54;99960.0;;;9.9;94.0
52343;BME280;38277;51.972;4.624;2023-04-12T05:22:56;99960.0;;;10.0;94.0
52343;BME280;38277;51.972;4.624;2023-04-12T05:28:58;99950.0;;;10.0;94.0
52343;BME280;38277;51.972;4.624;2023-04-12T05:35:00;99960.0;;;10.0;94.0
52343;BME280;38277;51.972;4.624;2023-04-12T05:44:03;99950.0;;;10.1;94.0
52343;BME280;38277;51.972;4.624;2023-04-12T05:48:24;99970.0;;;10.2;94.0
52343;BME280;38277;51.972;4.624;2023-04-12T05:54:27;99960.0;;;10.2;93.5
52343;BME280;38277;51.972;4.624;2023-04-12T06:00:28;99950.0;;;10.3;93.5
52343;BME280;38277;51.972;4.624;2023-04-12T06:06:43;99960.0;;;10.4;93.0
52343;BME280;38277;51.972;4.624;2023-04-12T06:12:45;99960.0;;;10.4;93.0
52343;BME280;38277;51.972;4.624;2023-04-12T06:19:53;99960.0;;;10.4;91.0
52343;BME280;38277;51.972;4.624;2023-04-12T06:25:55;99940.0;;;10.5;90.5
52343;BME280;38277;51.972;4.624;2023-04-12T06:33:19;99960.0;;;10.5;88.5
52343;BME280;38277;51.972;4.624;2023-04-12T06:39:21;99960.0;;;10.5;87.5
52343;BME280;38277;51.972;4.624;2023-04-12T06:45:23;99960.0;;;10.4;86.5
52343;BME280;38277;51.972;4.624;2023-04-12T06:51:25;99950.0;;;10.5;86.0
52343;BME280;38277;51.972;4.624;2023-04-12T06:57:27;99960.0;;;10.6;85.5
52343;BME280;38277;51.972;4.624;2023-04-12T07:01:33;99960.0;;;10.7;85.0
52343;BME280;38277;51.972;4.624;2023-04-12T07:09:29;99970.0;;;10.7;82.5
52343;BME280;38277;51.972;4.624;2023-04-12T07:13:57;99960.0;;;10.8;81.0
52343;BME280;38277;51.972;4.624;2023-04-12T07:18:31;99970.0;;;10.9;81.5
52343;BME280;38277;51.972;4.624;2023-04-12T07:22:51;99960.0;;;11.0;80.5
52343;BME280;38277;51.972;4.624;2023-04-12T07:27:21;99950.0;;;11.1;79.0
52343;BME280;38277;51.972;4.624;2023-04-12T07:31:59;99930.0;;;11.0;77.5
52343;BME280;38277;51.972;4.624;2023-04-12T07:36:22;99930.0;;;11.0;78.0
52343;BME280;38277;51.972;4.624;2023-04-12T07:45:30;99920.0;;;11.4;75.5
52343;BME280;38277;51.972;4.624;2023-04-12T07:49:51;99910.0;;;11.5;72.5
52343;BME280;38277;51.972;4.624;2023-04-12T07:54:38;99910.0;;;11.6;72.0
52343;BME280;38277;51.972;4.624;2023-04-12T07:58:57;99920.0;;;11.7;71.5
52343;BME280;38277;51.972;4.624;2023-04-12T08:03:26;99920.0;;;12.0;72.5
52343;BME280;38277;51.972;4.624;2023-04-12T08:07:54;99910.0;;;12.3;71.5
52343;BME280;38277;51.972;4.624;2023-04-12T08:12:35;99910.0;;;12.5;69.0
52343;BME280;38277;51.972;4.624;2023-04-12T08:21:46;99920.0;;;12.6;66.0
52343;BME280;38277;51.972;4.624;2023-04-12T08:26:14;99910.0;;;12.6;65.0
52343;BME280;38277;51.972;4.624;2023-04-12T08:30:30;99930.0;;;12.6;64.0
52343;BME280;38277;51.972;4.624;2023-04-12T08:35:16;99920.0;;;12.6;63.0
52343;BME280;38277;51.972;4.624;2023-04-12T08:39:37;99920.0;;;12.5;64.0
52343;BME280;38277;51.972;4.624;2023-04-12T08:44:14;99930.0;;;12.6;64.0
52343;BME280;38277;51.972;4.624;2023-04-12T08:48:43;99910.0;;;12.7;63.5
52343;BME280;38277;51.972;4.624;2023-04-12T08:57:35;99920.0;;;13.2;62.0
52343;BME280;38277;51.972;4.624;2023-04-12T09:02:13;99910.0;;;13.4;62.5
52343;BME280;38277;51.972;4.624;2023-04-12T09:06:46;99920.0;;;13.6;59.5
52343;BME280;38277;51.972;4.624;2023-04-12T09:11:20;99920.0;;;13.5;59.0
52343;BME280;38277;51.972;4.624;2023-04-12T09:15:48;99910.0;;;13.4;59.0
52343;BME280;38277;51.972;4.624;2023-04-12T09:19:48;99910.0;;;13.5;60.5
52343;BME280;38277;51.972;4.624;2023-04-12T09:24:44;99930.0;;;13.7;59.5
52343;BME280;38277;51.972;4.624;2023-04-12T09:33:32;99900.0;;;14.1;57.5
52343;BME280;38277;51.972;4.624;2023-04-12T09:37:57;99890.0;;;14.1;54.5
52343;BME280;38277;51.972;4.624;2023-04-12T09:42:52;99900.0;;;14.1;51.5
52343;BME280;38277;51.972;4.624;2023-04-12T09:47:10;99900.0;;;14.1;52.0
52343;BME280;38277;51.972;4.624;2023-04-12T09:51:24;99890.0;;;14.1;52.0
52343;BME280;38277;51.972;4.624;2023-04-12T09:56:14;99900.0;;;14.0;53.0
52343;BME280;38277;51.972;4.624;2023-04-12T10:00:44;99900.0;;;13.8;53.5
52343;BME280;38277;51.972;4.624;2023-04-12T10:09:46;99920.0;;;13.4;52.0
52343;BME280;38277;51.972;4.624;2023-04-12T10:14:16;99910.0;;;13.4;53.0
52343;BME280;38277;51.972;4.624;2023-04-12T10:18:30;99910.0;;;13.6;55.0
52343;BME280;38277;51.972;4.624;2023-04-12T10:23:11;99900.0;;;13.8;54.5
52343;BME280;38277;51.972;4.624;2023-04-12T10:27:35;99910.0;;;14.0;53.5
52343;BME280;38277;51.972;4.624;2023-04-12T10:31:53;99910.0;;;14.1;51.0
52343;BME280;38277;51.972;4.624;2023-04-12T10:36:51;99910.0;;;14.0;48.5
52343;BME280;38277;51.972;4.624;2023-04-12T10:45:37;99910.0;;;14.1;50.5
52343;BME280;38277;51.972;4.624;2023-04-12T10:50:21;99900.0;;;14.5;48.5
52343;BME280;38277;51.972;4.624;2023-04-12T10:54:45;99890.0;;;14.7;46.0
52343;BME280;38277;51.972;4.624;2023-04-12T10:59:11;99900.0;;;14.8;44.5
52343;BME280;38277;51.972;4.624;2023-04-12T11:04:04;99910.0;;;15.4;41.0
52343;BME280;38277;51.972;4.624;2023-04-12T11:08:07;99900.0;;;16.7;39.5
52343;BME280;38277;51.972;4.624;2023-04-12T11:12:34;99910.0;;;17.6;36.5
52343;BME280;38277;51.972;4.624;2023-04-12T11:21:20;99910.0;;;18.4;33.0
52343;BME280;38277;51.972;4.624;2023-04-12T11:25:50;99920.0;;;17.4;33.5
52343;BME280;38277;51.972;4.624;2023-04-12T11:30:27;99920.0;;;16.7;34.0
52343;BME280;38277;51.972;4.624;2023-04-12T11:39:30;99930.0;;;15.9;37.0
52343;BME280;38277;51.972;4.624;2023-04-12T11:43:51;99930.0;;;15.6;37.0
52343;BME280;38277;51.972;4.624;2023-04-12T11:48:21;99930.0;;;15.6;36.0
52343;BME280;38277;51.972;4.624;2023-04-12T11:57:23;99940.0;;;15.4;34.5
52343;BME280;38277;51.972;4.624;2023-04-12T12:01:55;99940.0;;;15.2;34.5
52343;BME280;38277;51.972;4.624;2023-04-12T12:06:19;99950.0;;;15.3;35.5
52343;BME280;38277;51.972;4.624;2023-04-12T12:11:02;99950.0;;;15.1;35.5
52343;BME280;38277;51.972;4.624;2023-04-12T12:15:28;99960.0;;;14.7;36.5
52343;BME280;38277;51.972;4.624;2023-04-12T12:20:05;99960.0;;;14.4;38.5
52343;BME280;38277;51.972;4.624;2023-04-12T12:24:49;99980.0;;;14.0;40.5
52343;BME280;38277;51.972;4.624;2023-04-12T12:33:38;99960.0;;;13.3;46.5
52343;BME280;38277;51.972;4.624;2023-04-12T12:37:50;99960.0;;;13.5;48.0
52343;BME280;38277;51.972;4.624;2023-04-12T12:42:36;99970.0;;;13.5;47.5
52343;BME280;38277;51.972;4.624;2023-04-12T12:56:03;99950.0;;;15.8;43.5
52343;BME280;38277;51.972;4.624;2023-04-12T13:00:47;99940.0;;;18.1;40.5
52343;BME280;38277;51.972;4.624;2023-04-12T13:09:45;99930.0;;;23.7;29.5
52343;BME280;38277;51.972;4.624;2023-04-12T13:13:54;99930.0;;;25.0;27.5
52343;BME280;38277;51.972;4.624;2023-04-12T13:18:45;99920.0;;;25.1;26.5
52343;BME280;38277;51.972;4.624;2023-04-12T13:23:10;99920.0;;;22.9;29.0
52343;BME280;38277;51.972;4.624;2023-04-12T13:27:19;99930.0;;;20.9;32.5
52343;BME280;38277;51.972;4.624;2023-04-12T13:33:34;99940.0;;;19.2;35.0
52343;BME280;38277;51.972;4.624;2023-04-12T13:36:32;99930.0;;;17.8;37.5
52343;BME280;38277;51.972;4.624;2023-04-12T13:41:04;99930.0;;;16.7;39.5
52343;BME280;38277;51.972;4.624;2023-04-12T13:45:20;99930.0;;;16.1;41.0
52343;BME280;38277;51.972;4.624;2023-04-12T13:51:36;99930.0;;;16.3;41.5
52343;BME280;38277;51.972;4.624;2023-04-12T13:54:40;99920.0;;;16.2;42.0
52343;BME280;38277;51.972;4.624;2023-04-12T13:58:52;99930.0;;;15.7;43.5
52343;BME280;38277;51.972;4.624;2023-04-12T14:05:26;99920.0;;;15.6;44.0
52343;BME280;38277;51.972;4.624;2023-04-12T14:09:37;99910.0;;;15.1;43.0
52343;BME280;38277;51.972;4.624;2023-04-12T14:12:29;99910.0;;;14.4;42.5
52343;BME280;38277;51.972;4.624;2023-04-12T14:17:00;99920.0;;;14.7;42.5
52343;BME280;38277;51.972;4.624;2023-04-12T14:21:41;99910.0;;;16.0;39.0
52343;BME280;38277;51.972;4.624;2023-04-12T14:25:48;99900.0;;;16.0;39.5
52343;BME280;38277;51.972;4.624;2023-04-12T14:34:49;99880.0;;;21.2;30.0
52343;BME280;38277;51.972;4.624;2023-04-12T14:39:18;99880.0;;;20.7;30.5
52343;BME280;38277;51.972;4.624;2023-04-12T14:44:05;99870.0;;;20.9;31.0
52343;BME280;38277;51.972;4.624;2023-04-12T14:48:27;99880.0;;;20.3;31.5
52343;BME280;38277;51.972;4.624;2023-04-12T14:53:11;99890.0;;;18.8;34.5
52343;BME280;38277;51.972;4.624;2023-04-12T14:57:27;99900.0;;;19.7;33.0
52343;BME280;38277;51.972;4.624;2023-04-12T15:02:02;99870.0;;;20.7;30.5
52343;BME280;38277;51.972;4.624;2023-04-12T15:10:49;99880.0;;;20.7;30.5
52343;BME280;38277;51.972;4.624;2023-04-12T15:15:22;99880.0;;;21.1;30.0
52343;BME280;38277;51.972;4.624;2023-04-12T15:19:52;99870.0;;;21.9;28.0
52343;BME280;38277;51.972;4.624;2023-04-12T15:24:19;99870.0;;;21.8;28.0
52343;BME280;38277;51.972;4.624;2023-04-12T15:29:06;99870.0;;;20.2;31.5
52343;BME280;38277;51.972;4.624;2023-04-12T15:38:08;99880.0;;;19.0;32.5
52343;BME280;38277;51.972;4.624;2023-04-12T15:42:22;99880.0;;;18.3;34.0
52343;BME280;38277;51.972;4.624;2023-04-12T15:47:08;99880.0;;;17.5;34.5
52343;BME280;38277;51.972;4.624;2023-04-12T15:53:24;99880.0;;;16.6;35.0
52343;BME280;38277;51.972;4.624;2023-04-12T15:56:09;99880.0;;;16.0;37.0
52343;BME280;38277;51.972;4.624;2023-04-12T16:00:19;99870.0;;;16.8;36.0
52343;BME280;38277;51.972;4.624;2023-04-12T16:04:56;99880.0;;;16.9;35.5
52343;BME280;38277;51.972;4.624;2023-04-12T16:11:01;99880.0;;;16.0;37.5
52343;BME280;38277;51.972;4.624;2023-04-12T16:13:56;99880.0;;;15.6;41.0
52343;BME280;38277;51.972;4.624;2023-04-12T16:18:38;99870.0;;;16.8;39.5
52343;BME280;38277;51.972;4.624;2023-04-12T16:23:03;99860.0;;;17.5;38.5
52343;BME280;38277;51.972;4.624;2023-04-12T16:29:21;99870.0;;;17.2;39.0
52343;BME280;38277;51.972;4.624;2023-04-12T16:31:57;99850.0;;;16.6;39.0
52343;BME280;38277;51.972;4.624;2023-04-12T16:36:23;99860.0;;;15.9;37.0
52343;BME280;38277;51.972;4.624;2023-04-12T16:40:49;99850.0;;;15.5;37.0
52343;BME280;38277;51.972;4.624;2023-04-12T16:47:08;99850.0;;;15.1;38.5
52343;BME280;38277;51.972;4.624;2023-04-12T16:50:17;99850.0;;;14.7;39.5
52343;BME280;38277;51.972;4.624;2023-04-12T16:54:27;99850.0;;;14.7;40.0
52343;BME280;38277;51.972;4.624;2023-04-12T16:59:03;99850.0;;;14.9;38.0
52343;BME280;38277;51.972;4.624;2023-04-12T17:05:05;99840.0;;;14.9;36.5
52343;BME280;38277;51.972;4.624;2023-04-12T17:08:12;99850.0;;;14.6;37.0
52343;BME280;38277;51.972;4.624;2023-04-12T17:14:01;99840.0;;;14.3;38.0
52343;BME280;38277;51.972;4.624;2023-04-12T17:16:54;99830.0;;;14.2;38.5
52343;BME280;38277;51.972;4.624;2023-04-12T17:23:01;99820.0;;;14.2;39.0
52343;BME280;38277;51.972;4.624;2023-04-12T17:26:05;99820.0;;;14.0;39.5
52343;BME280;38277;51.972;4.624;2023-04-12T17:30:27;99820.0;;;13.8;40.5
52343;BME280;38277;51.972;4.624;2023-04-12T17:35:10;99820.0;;;13.5;41.0
52343;BME280;38277;51.972;4.624;2023-04-12T17:41:10;99810.0;;;13.3;41.5
52343;BME280;38277;51.972;4.624;2023-04-12T17:44:17;99820.0;;;13.0;42.0
52343;BME280;38277;51.972;4.624;2023-04-12T17:48:43;99810.0;;;12.8;42.0
52343;BME280;38277;51.972;4.624;2023-04-12T17:52:59;99810.0;;;12.6;42.0
52343;BME280;38277;51.972;4.624;2023-04-12T18:02:06;99800.0;;;12.4;41.5
52343;BME280;38277;51.972;4.624;2023-04-12T18:06:25;99800.0;;;12.3;41.5
52343;BME280;38277;51.972;4.624;2023-04-12T18:10:51;99800.0;;;12.2;42.0
52343;BME280;38277;51.972;4.624;2023-04-12T18:15:43;99800.0;;;12.1;43.0
52343;BME280;38277;51.972;4.624;2023-04-12T18:20:03;99800.0;;;12.0;43.5
52343;BME280;38277;51.972;4.624;2023-04-12T18:24:47;99800.0;;;12.0;43.0
52343;BME280;38277;51.972;4.624;2023-04-12T18:29:07;99800.0;;;11.8;43.5
52343;BME280;38277;51.972;4.624;2023-04-12T18:37:55;99800.0;;;11.7;44.5
52343;BME280;38277;51.972;4.624;2023-04-12T18:42:22;99780.0;;;11.6;44.5
52343;BME280;38277;51.972;4.624;2023-04-12T18:47:14;99780.0;;;11.6;44.0
52343;BME280;38277;51.972;4.624;2023-04-12T18:51:30;99780.0;;;11.5;44.5
52343;BME280;38277;51.972;4.624;2023-04-12T18:56:07;99770.0;;;11.5;44.5
52343;BME280;38277;51.972;4.624;2023-04-12T19:00:35;99760.0;;;11.4;45.0
52343;BME280;38277;51.972;4.624;2023-04-12T19:05:01;99760.0;;;11.4;45.5
52343;BME280;38277;51.972;4.624;2023-04-12T19:14:10;99760.0;;;11.3;46.5
52343;BME280;38277;51.972;4.624;2023-04-12T19:23:17;99780.0;;;11.1;47.5
52343;BME280;38277;51.972;4.624;2023-04-12T19:27:40;99760.0;;;10.9;48.5
52343;BME280;38277;51.972;4.624;2023-04-12T19:31:52;99760.0;;;10.8;48.5
52343;BME280;38277;51.972;4.624;2023-04-12T19:36:31;99750.0;;;10.8;49.5
52343;BME280;38277;51.972;4.624;2023-04-12T19:40:59;99750.0;;;10.7;50.0
52343;BME280;38277;51.972;4.624;2023-04-12T19:49:54;99730.0;;;10.6;50.5
52343;BME280;38277;51.972;4.624;2023-04-12T19:54:42;99720.0;;;10.6;50.5
52343;BME280;38277;51.972;4.624;2023-04-12T19:59:07;99710.0;;;10.7;51.0
52343;BME280;38277;51.972;4.624;2023-04-12T20:03:35;99700.0;;;10.7;51.0
52343;BME280;38277;51.972;4.624;2023-04-12T20:08:07;99690.0;;;10.7;51.5
52343;BME280;38277;51.972;4.624;2023-04-12T20:14:05;99680.0;;;10.7;51.5
52343;BME280;38277;51.972;4.624;2023-04-12T20:16:54;99670.0;;;10.7;51.5
52343;BME280;38277;51.972;4.624;2023-04-12T20:21:28;99660.0;;;10.6;51.5
52343;BME280;38277;51.972;4.624;2023-04-12T20:26:03;99650.0;;;10.6;51.0
52343;BME280;38277;51.972;4.624;2023-04-12T20:32:22;99650.0;;;10.7;51.0
52343;BME280;38277;51.972;4.624;2023-04-12T20:34:48;99640.0;;;10.7;51.5
52343;BME280;38277;51.972;4.624;2023-04-12T20:39:33;99620.0;;;10.7;51.0
52343;BME280;38277;51.972;4.624;2023-04-12T20:44:01;99610.0;;;10.7;51.0
52343;BME280;38277;51.972;4.624;2023-04-12T20:49:56;99600.0;;;10.7;51.0
52343;BME280;38277;51.972;4.624;2023-04-12T20:53:16;99590.0;;;10.6;51.0
52343;BME280;38277;51.972;4.624;2023-04-12T20:57:25;99580.0;;;10.6;51.5
52343;BME280;38277;51.972;4.624;2023-04-12T21:01:56;99580.0;;;10.6;51.5
52343;BME280;38277;51.972;4.624;2023-04-12T21:08:01;99580.0;;;10.5;52.0
52343;BME280;38277;51.972;4.624;2023-04-12T21:10:50;99560.0;;;10.5;53.0
52343;BME280;38277;51.972;4.624;2023-04-12T21:15:42;99540.0;;;10.4;54.0
52343;BME280;38277;51.972;4.624;2023-04-12T21:20:07;99540.0;;;10.4;54.0
52343;BME280;38277;51.972;4.624;2023-04-12T21:26:02;99520.0;;;10.3;54.0
52343;BME280;38277;51.972;4.624;2023-04-12T21:29:07;99520.0;;;10.3;54.0
52343;BME280;38277;51.972;4.624;2023-04-12T21:33:20;99510.0;;;10.4;55.0
52343;BME280;38277;51.972;4.624;2023-04-12T21:37:49;99500.0;;;10.3;56.0
52343;BME280;38277;51.972;4.624;2023-04-12T21:44:22;99520.0;;;10.1;58.0
52343;BME280;38277;51.972;4.624;2023-04-12T21:47:11;99510.0;;;10.0;60.5
52343;BME280;38277;51.972;4.624;2023-04-12T21:53:21;99540.0;;;9.6;63.5
52343;BME280;38277;51.972;4.624;2023-04-12T21:56:05;99530.0;;;9.0;67.5
52343;BME280;38277;51.972;4.624;2023-04-12T22:05:00;99520.0;;;8.3;74.0
52343;BME280;38277;51.972;4.624;2023-04-12T22:09:50;99500.0;;;8.1;76.0
52343;BME280;38277;51.972;4.624;2023-04-12T22:13:49;99470.0;;;8.0;77.5
52343;BME280;38277;51.972;4.624;2023-04-12T22:18:37;99480.0;;;8.0;78.5
52343;BME280;38277;51.972;4.624;2023-04-12T22:22:53;99470.0;;;8.1;79.5
52343;BME280;38277;51.972;4.624;2023-04-12T22:27:19;99470.0;;;8.1;80.0
52343;BME280;38277;51.972;4.624;2023-04-12T22:32:10;99470.0;;;8.1;80.5
52343;BME280;38277;51.972;4.624;2023-04-12T22:40:59;99470.0;;;8.2;81.0
52343;BME280;38277;51.972;4.624;2023-04-12T22:45:18;99470.0;;;8.2;81.5
52343;BME280;38277;51.972;4.624;2023-04-12T22:50:12;99470.0;;;8.1;82.0
52343;BME280;38277;51.972;4.624;2023-04-12T22:54:46;99470.0;;;8.1;82.5
52343;BME280;38277;51.972;4.624;2023-04-12T22:58:51;99480.0;;;8.1;82.5
52343;BME280;38277;51.972;4.624;2023-04-12T23:03:31;99470.0;;;8.0;83.5
52343;BME280;38277;51.972;4.624;2023-04-12T23:07:59;99470.0;;;8.0;84.0
52343;BME280;38277;51.972;4.624;2023-04-12T23:17:14;99470.0;;;8.1;84.5
52343;BME280;38277;51.972;4.624;2023-04-12T23:21:40;99470.0;;;8.1;85.0
52343;BME280;38277;51.972;4.624;2023-04-12T23:25:48;99460.0;;;8.0;85.5
52343;BME280;38277;51.972;4.624;2023-04-12T23:30:30;99460.0;;;8.0;85.5
52343;BME280;38277;51.972;4.624;2023-04-12T23:36:27;99450.0;;;8.1;85.5
52343;BME280;38277;51.972;4.624;2023-04-12T23:39:31;99450.0;;;8.1;85.5
52343;BME280;38277;51.972;4.624;2023-04-12T23:45:37;99450.0;;;8.1;85.5
52343;BME280;38277;51.972;4.624;2023-04-12T23:48:35;99450.0;;;8.0;84.5
52343;BME280;38277;51.972;4.624;2023-04-12T23:54:43;99440.0;;;8.0;84.0
52343;BME280;38277;51.972;4.624;2023-04-12T23:57:33;99450.0;;;7.9;84.5
